sensor_id;sensor_type;location;lat;lon;timestamp;temperature;humidity
19292;DHT22;9779;51.756;7.450;2022-07-18T00:01:28;19.40;99.90
19292;DHT22;9779;51.756;7.450;2022-07-18T00:03:54;19.30;99.90
19292;DHT22;9779;51.756;7.450;2022-07-18T00:06:19;19.30;99.90
19292;DHT22;9779;51.756;7.450;2022-07-18T00:08:45;19.30;99.90
19292;DHT22;9779;51.756;7.450;2022-07-18T00:11:10;19.30;99.90
19292;DHT22;9779;51.756;7.450;2022-07-18T00:13:36;19.20;99.90
19292;DHT22;9779;51.756;7.450;2022-07-18T00:16:02;19.20;99.90
19292;DHT22;9779;51.756;7.450;2022-07-18T00:18:27;19.20;99.90
19292;DHT22;9779;51.756;7.450;2022-07-18T00:20:53;19.10;99.90
19292;DHT22;9779;51.756;7.450;2022-07-18T00:23:18;19.00;99.90
19292;DHT22;9779;51.756;7.450;2022-07-18T00:25:44;19.00;99.90
19292;DHT22;9779;51.756;7.450;2022-07-18T00:28:10;19.00;99.90
19292;DHT22;9779;51.756;7.450;2022-07-18T00:30:38;18.90;99.90
19292;DHT22;9779;51.756;7.450;2022-07-18T00:33:03;18.90;99.90
19292;DHT22;9779;51.756;7.450;2022-07-18T00:35:29;18.90;99.90
19292;DHT22;9779;51.756;7.450;2022-07-18T00:37:55;18.80;99.90
19292;DHT22;9779;51.756;7.450;2022-07-18T00:40:20;18.80;99.90
19292;DHT22;9779;51.756;7.450;2022-07-18T00:42:47;18.70;99.90
19292;DHT22;9779;51.756;7.450;2022-07-18T00:45:13;18.70;99.90
19292;DHT22;9779;51.756;7.450;2022-07-18T00:47:39;18.70;99.90
19292;DHT22;9779;51.756;7.450;2022-07-18T00:50:05;18.60;99.90
19292;DHT22;9779;51.756;7.450;2022-07-18T00:52:33;18.50;99.90
19292;DHT22;9779;51.756;7.450;2022-07-18T00:54:58;18.50;99.90
19292;DHT22;9779;51.756;7.450;2022-07-18T00:57:24;18.50;99.90
19292;DHT22;9779;51.756;7.450;2022-07-18T00:59:51;18.40;99.90
19292;DHT22;9779;51.756;7.450;2022-07-18T01:02:36;18.40;99.90
19292;DHT22;9779;51.756;7.450;2022-07-18T01:05:02;18.30;99.90
19292;DHT22;9779;51.756;7.450;2022-07-18T01:07:27;18.30;99.90
19292;DHT22;9779;51.756;7.450;2022-07-18T01:09:53;18.30;99.90
19292;DHT22;9779;51.756;7.450;2022-07-18T01:12:19;18.20;99.90
19292;DHT22;9779;51.756;7.450;2022-07-18T01:14:46;18.20;99.90
19292;DHT22;9779;51.756;7.450;2022-07-18T01:17:17;18.20;99.90
19292;DHT22;9779;51.756;7.450;2022-07-18T01:19:43;18.10;99.90
19292;DHT22;9779;51.756;7.450;2022-07-18T01:22:10;18.10;99.90
19292;DHT22;9779;51.756;7.450;2022-07-18T01:24:37;18.10;99.90
19292;DHT22;9779;51.756;7.450;2022-07-18T01:27:03;18.00;99.90
19292;DHT22;9779;51.756;7.450;2022-07-18T01:29:28;18.00;99.90
19292;DHT22;9779;51.756;7.450;2022-07-18T01:31:54;18.00;99.90
19292;DHT22;9779;51.756;7.450;2022-07-18T01:34:23;17.90;99.90
19292;DHT22;9779;51.756;7.450;2022-07-18T01:36:49;17.80;99.90
19292;DHT22;9779;51.756;7.450;2022-07-18T01:39:14;17.80;99.90
19292;DHT22;9779;51.756;7.450;2022-07-18T01:41:40;17.80;99.90
19292;DHT22;9779;51.756;7.450;2022-07-18T01:44:06;17.70;99.90
19292;DHT22;9779;51.756;7.450;2022-07-18T01:46:32;17.70;99.90
19292;DHT22;9779;51.756;7.450;2022-07-18T01:48:58;17.70;99.90
19292;DHT22;9779;51.756;7.450;2022-07-18T01:51:23;17.70;99.90
19292;DHT22;9779;51.756;7.450;2022-07-18T01:53:57;17.60;99.90
19292;DHT22;9779;51.756;7.450;2022-07-18T01:56:25;17.60;99.90
19292;DHT22;9779;51.756;7.450;2022-07-18T01:58:51;17.50;99.90
19292;DHT22;9779;51.756;7.450;2022-07-18T02:01:17;17.50;99.90
19292;DHT22;9779;51.756;7.450;2022-07-18T02:03:42;17.50;99.90
19292;DHT22;9779;51.756;7.450;2022-07-18T02:06:08;17.40;99.90
19292;DHT22;9779;51.756;7.450;2022-07-18T02:08:34;17.40;99.90
19292;DHT22;9779;51.756;7.450;2022-07-18T02:10:59;17.30;99.90
19292;DHT22;9779;51.756;7.450;2022-07-18T02:13:25;17.20;99.90
19292;DHT22;9779;51.756;7.450;2022-07-18T02:15:50;17.20;99.90
19292;DHT22;9779;51.756;7.450;2022-07-18T02:18:20;17.20;99.90
19292;DHT22;9779;51.756;7.450;2022-07-18T02:20:46;17.20;99.90
19292;DHT22;9779;51.756;7.450;2022-07-18T02:23:12;17.10;99.90
19292;DHT22;9779;51.756;7.450;2022-07-18T02:25:37;17.10;99.90
19292;DHT22;9779;51.756;7.450;2022-07-18T02:28:03;17.10;99.90
19292;DHT22;9779;51.756;7.450;2022-07-18T02:30:29;17.00;99.90
19292;DHT22;9779;51.756;7.450;2022-07-18T02:32:55;17.00;99.90
19292;DHT22;9779;51.756;7.450;2022-07-18T02:35:20;16.90;99.90
19292;DHT22;9779;51.756;7.450;2022-07-18T02:37:46;16.90;99.90
19292;DHT22;9779;51.756;7.450;2022-07-18T02:40:12;16.90;99.90
19292;DHT22;9779;51.756;7.450;2022-07-18T02:42:38;16.80;99.90
19292;DHT22;9779;51.756;7.450;2022-07-18T02:45:06;16.80;99.90
19292;DHT22;9779;51.756;7.450;2022-07-18T02:47:31;16.70;99.90
19292;DHT22;9779;51.756;7.450;2022-07-18T02:49:57;16.70;99.90
19292;DHT22;9779;51.756;7.450;2022-07-18T02:52:23;16.60;99.90
19292;DHT22;9779;51.756;7.450;2022-07-18T02:54:48;16.60;99.90
19292;DHT22;9779;51.756;7.450;2022-07-18T02:57:14;16.60;99.90
19292;DHT22;9779;51.756;7.450;2022-07-18T02:59:39;16.60;99.90
19292;DHT22;9779;51.756;7.450;2022-07-18T03:02:06;16.50;99.90
19292;DHT22;9779;51.756;7.450;2022-07-18T03:04:32;16.50;99.90
19292;DHT22;9779;51.756;7.450;2022-07-18T03:06:58;16.40;99.90
19292;DHT22;9779;51.756;7.450;2022-07-18T03:09:24;16.40;99.90
19292;DHT22;9779;51.756;7.450;2022-07-18T03:11:54;16.30;99.90
19292;DHT22;9779;51.756;7.450;2022-07-18T03:14:20;16.20;99.90
19292;DHT22;9779;51.756;7.450;2022-07-18T03:16:46;16.20;99.90
19292;DHT22;9779;51.756;7.450;2022-07-18T03:19:11;16.20;99.90
19292;DHT22;9779;51.756;7.450;2022-07-18T03:21:37;16.20;99.90
19292;DHT22;9779;51.756;7.450;2022-07-18T03:24:03;16.20;99.90
19292;DHT22;9779;51.756;7.450;2022-07-18T03:26:29;16.20;99.90
19292;DHT22;9779;51.756;7.450;2022-07-18T03:28:54;16.10;99.90
19292;DHT22;9779;51.756;7.450;2022-07-18T03:31:20;16.10;99.90
19292;DHT22;9779;51.756;7.450;2022-07-18T03:33:46;16.10;99.90
19292;DHT22;9779;51.756;7.450;2022-07-18T03:36:11;16.00;99.90
19292;DHT22;9779;51.756;7.450;2022-07-18T03:38:37;16.00;99.90
19292;DHT22;9779;51.756;7.450;2022-07-18T03:41:03;16.00;99.90
19292;DHT22;9779;51.756;7.450;2022-07-18T03:43:29;15.90;99.90
19292;DHT22;9779;51.756;7.450;2022-07-18T03:45:56;15.90;99.90
19292;DHT22;9779;51.756;7.450;2022-07-18T03:48:21;15.90;99.90
19292;DHT22;9779;51.756;7.450;2022-07-18T03:50:47;15.80;99.90
19292;DHT22;9779;51.756;7.450;2022-07-18T03:53:12;15.80;99.90
19292;DHT22;9779;51.756;7.450;2022-07-18T03:55:38;15.80;99.90
19292;DHT22;9779;51.756;7.450;2022-07-18T03:58:04;15.70;99.90
19292;DHT22;9779;51.756;7.450;2022-07-18T04:00:29;15.70;99.90
19292;DHT22;9779;51.756;7.450;2022-07-18T04:02:55;15.70;99.90
19292;DHT22;9779;51.756;7.450;2022-07-18T04:05:20;15.70;99.90
19292;DHT22;9779;51.756;7.450;2022-07-18T04:07:46;15.70;99.90
19292;DHT22;9779;51.756;7.450;2022-07-18T04:10:12;15.70;99.90
19292;DHT22;9779;51.756;7.450;2022-07-18T04:12:49;15.70;99.90
19292;DHT22;9779;51.756;7.450;2022-07-18T04:15:16;15.70;99.90
19292;DHT22;9779;51.756;7.450;2022-07-18T04:17:41;15.60;99.90
19292;DHT22;9779;51.756;7.450;2022-07-18T04:20:07;15.60;99.90
19292;DHT22;9779;51.756;7.450;2022-07-18T04:22:54;15.60;99.90
19292;DHT22;9779;51.756;7.450;2022-07-18T04:25:21;15.60;99.90
19292;DHT22;9779;51.756;7.450;2022-07-18T04:27:47;15.60;99.90
19292;DHT22;9779;51.756;7.450;2022-07-18T04:30:15;15.60;99.90
19292;DHT22;9779;51.756;7.450;2022-07-18T05:53:00;16.10;99.90
19292;DHT22;9779;51.756;7.450;2022-07-18T05:55:26;16.20;99.90
19292;DHT22;9779;51.756;7.450;2022-07-18T05:57:51;16.20;99.90
19292;DHT22;9779;51.756;7.450;2022-07-18T06:00:18;16.20;99.90
19292;DHT22;9779;51.756;7.450;2022-07-18T06:02:47;16.20;99.90
19292;DHT22;9779;51.756;7.450;2022-07-18T06:05:13;16.20;99.90
19292;DHT22;9779;51.756;7.450;2022-07-18T06:07:38;16.30;99.90
19292;DHT22;9779;51.756;7.450;2022-07-18T06:10:04;16.30;99.90
19292;DHT22;9779;51.756;7.450;2022-07-18T06:12:31;16.40;99.90
19292;DHT22;9779;51.756;7.450;2022-07-18T06:14:58;16.40;99.90
19292;DHT22;9779;51.756;7.450;2022-07-18T06:17:23;16.50;99.90
19292;DHT22;9779;51.756;7.450;2022-07-18T06:19:49;16.50;99.90
19292;DHT22;9779;51.756;7.450;2022-07-18T06:22:15;16.50;99.90
19292;DHT22;9779;51.756;7.450;2022-07-18T06:24:40;16.60;99.90
19292;DHT22;9779;51.756;7.450;2022-07-18T06:27:06;16.70;99.90
19292;DHT22;9779;51.756;7.450;2022-07-18T06:29:32;16.70;99.90
19292;DHT22;9779;51.756;7.450;2022-07-18T06:31:57;16.80;99.90
19292;DHT22;9779;51.756;7.450;2022-07-18T06:34:23;16.80;99.90
19292;DHT22;9779;51.756;7.450;2022-07-18T06:36:49;16.90;99.90
19292;DHT22;9779;51.756;7.450;2022-07-18T06:39:14;16.90;99.90
19292;DHT22;9779;51.756;7.450;2022-07-18T06:41:44;16.90;99.90
19292;DHT22;9779;51.756;7.450;2022-07-18T06:44:09;17.00;99.90
19292;DHT22;9779;51.756;7.450;2022-07-18T06:46:35;17.10;99.90
19292;DHT22;9779;51.756;7.450;2022-07-18T06:49:02;17.10;99.90
19292;DHT22;9779;51.756;7.450;2022-07-18T06:51:28;17.20;99.90
19292;DHT22;9779;51.756;7.450;2022-07-18T06:53:54;17.20;99.90
19292;DHT22;9779;51.756;7.450;2022-07-18T06:56:20;17.30;99.90
19292;DHT22;9779;51.756;7.450;2022-07-18T06:58:46;17.40;99.90
19292;DHT22;9779;51.756;7.450;2022-07-18T07:01:15;17.40;99.90
19292;DHT22;9779;51.756;7.450;2022-07-18T07:03:41;17.40;99.90
19292;DHT22;9779;51.756;7.450;2022-07-18T07:06:07;17.50;99.90
19292;DHT22;9779;51.756;7.450;2022-07-18T07:08:32;17.60;99.90
19292;DHT22;9779;51.756;7.450;2022-07-18T07:10:59;17.70;99.90
19292;DHT22;9779;51.756;7.450;2022-07-18T07:13:25;17.80;99.90
19292;DHT22;9779;51.756;7.450;2022-07-18T07:15:50;17.90;99.90
19292;DHT22;9779;51.756;7.450;2022-07-18T07:18:16;18.10;99.90
19292;DHT22;9779;51.756;7.450;2022-07-18T07:20:42;18.10;99.90
19292;DHT22;9779;51.756;7.450;2022-07-18T07:23:07;18.20;99.90
19292;DHT22;9779;51.756;7.450;2022-07-18T07:25:35;18.30;99.90
19292;DHT22;9779;51.756;7.450;2022-07-18T07:28:01;18.40;99.90
19292;DHT22;9779;51.756;7.450;2022-07-18T07:30:27;18.50;99.90
19292;DHT22;9779;51.756;7.450;2022-07-18T07:32:53;18.60;99.90
19292;DHT22;9779;51.756;7.450;2022-07-18T07:35:19;18.70;99.90
19292;DHT22;9779;51.756;7.450;2022-07-18T07:37:54;18.80;99.90
19292;DHT22;9779;51.756;7.450;2022-07-18T07:40:21;18.90;99.90
19292;DHT22;9779;51.756;7.450;2022-07-18T07:42:47;19.00;99.90
19292;DHT22;9779;51.756;7.450;2022-07-18T07:45:13;19.10;99.90
19292;DHT22;9779;51.756;7.450;2022-07-18T07:47:40;19.20;99.90
19292;DHT22;9779;51.756;7.450;2022-07-18T07:50:07;19.30;99.90
19292;DHT22;9779;51.756;7.450;2022-07-18T07:52:34;19.40;99.90
19292;DHT22;9779;51.756;7.450;2022-07-18T07:54:59;19.60;99.90
19292;DHT22;9779;51.756;7.450;2022-07-18T07:57:25;19.80;99.90
19292;DHT22;9779;51.756;7.450;2022-07-18T07:59:51;19.90;99.90
19292;DHT22;9779;51.756;7.450;2022-07-18T08:02:18;20.10;99.90
19292;DHT22;9779;51.756;7.450;2022-07-18T08:04:44;20.20;99.90
19292;DHT22;9779;51.756;7.450;2022-07-18T08:07:10;20.40;99.90
19292;DHT22;9779;51.756;7.450;2022-07-18T08:09:36;20.60;99.90
19292;DHT22;9779;51.756;7.450;2022-07-18T08:12:02;20.70;99.90
19292;DHT22;9779;51.756;7.450;2022-07-18T08:14:28;20.80;99.90
19292;DHT22;9779;51.756;7.450;2022-07-18T08:16:53;20.90;99.90
19292;DHT22;9779;51.756;7.450;2022-07-18T08:19:19;21.10;99.90
19292;DHT22;9779;51.756;7.450;2022-07-18T08:21:45;21.20;99.90
19292;DHT22;9779;51.756;7.450;2022-07-18T08:24:10;21.40;99.90
19292;DHT22;9779;51.756;7.450;2022-07-18T08:26:36;21.60;99.90
19292;DHT22;9779;51.756;7.450;2022-07-18T08:29:05;21.70;99.90
19292;DHT22;9779;51.756;7.450;2022-07-18T08:31:31;21.90;99.90
19292;DHT22;9779;51.756;7.450;2022-07-18T08:33:56;22.10;99.90
19292;DHT22;9779;51.756;7.450;2022-07-18T08:36:22;22.20;99.90
19292;DHT22;9779;51.756;7.450;2022-07-18T08:38:48;22.30;99.90
19292;DHT22;9779;51.756;7.450;2022-07-18T08:41:16;22.50;99.90
19292;DHT22;9779;51.756;7.450;2022-07-18T08:43:42;22.60;99.90
19292;DHT22;9779;51.756;7.450;2022-07-18T08:46:08;22.70;99.90
19292;DHT22;9779;51.756;7.450;2022-07-18T08:48:34;22.90;99.90
19292;DHT22;9779;51.756;7.450;2022-07-18T08:51:00;23.00;99.90
19292;DHT22;9779;51.756;7.450;2022-07-18T08:53:27;23.20;99.90
19292;DHT22;9779;51.756;7.450;2022-07-18T08:55:53;23.40;99.90
19292;DHT22;9779;51.756;7.450;2022-07-18T08:58:19;23.40;99.90
19292;DHT22;9779;51.756;7.450;2022-07-18T09:00:45;23.60;99.90
19292;DHT22;9779;51.756;7.450;2022-07-18T09:03:11;23.80;99.60
19292;DHT22;9779;51.756;7.450;2022-07-18T09:05:37;24.00;99.50
19292;DHT22;9779;51.756;7.450;2022-07-18T09:10:51;24.30;99.60
19292;DHT22;9779;51.756;7.450;2022-07-18T09:13:38;24.40;97.20
19292;DHT22;9779;51.756;7.450;2022-07-18T09:16:08;24.60;94.30
19292;DHT22;9779;51.756;7.450;2022-07-18T09:18:36;24.60;94.80
19292;DHT22;9779;51.756;7.450;2022-07-18T09:21:08;24.90;96.40
19292;DHT22;9779;51.756;7.450;2022-07-18T09:23:36;25.10;94.90
19292;DHT22;9779;51.756;7.450;2022-07-18T09:26:02;25.30;92.50
19292;DHT22;9779;51.756;7.450;2022-07-18T09:28:29;25.40;90.60
19292;DHT22;9779;51.756;7.450;2022-07-18T09:31:18;25.50;91.10
19292;DHT22;9779;51.756;7.450;2022-07-18T09:33:55;25.80;90.10
19292;DHT22;9779;51.756;7.450;2022-07-18T09:36:21;26.00;87.90
19292;DHT22;9779;51.756;7.450;2022-07-18T09:38:47;26.10;86.70
19292;DHT22;9779;51.756;7.450;2022-07-18T09:41:13;26.20;88.00
19292;DHT22;9779;51.756;7.450;2022-07-18T09:43:39;26.20;85.80
19292;DHT22;9779;51.756;7.450;2022-07-18T09:46:06;26.40;85.30
19292;DHT22;9779;51.756;7.450;2022-07-18T09:48:32;26.60;84.90
19292;DHT22;9779;51.756;7.450;2022-07-18T09:51:05;26.70;84.40
19292;DHT22;9779;51.756;7.450;2022-07-18T09:53:32;27.00;80.60
19292;DHT22;9779;51.756;7.450;2022-07-18T09:56:05;27.00;80.50
19292;DHT22;9779;51.756;7.450;2022-07-18T09:58:33;27.20;81.30
19292;DHT22;9779;51.756;7.450;2022-07-18T10:01:01;27.40;82.60
19292;DHT22;9779;51.756;7.450;2022-07-18T10:03:28;27.60;78.60
19292;DHT22;9779;51.756;7.450;2022-07-18T10:05:56;27.70;78.70
19292;DHT22;9779;51.756;7.450;2022-07-18T10:08:27;27.90;76.80
19292;DHT22;9779;51.756;7.450;2022-07-18T10:10:54;28.10;76.40
19292;DHT22;9779;51.756;7.450;2022-07-18T10:13:23;28.20;75.90
19292;DHT22;9779;51.756;7.450;2022-07-18T10:15:50;28.30;74.10
19292;DHT22;9779;51.756;7.450;2022-07-18T10:18:24;28.50;73.90
19292;DHT22;9779;51.756;7.450;2022-07-18T10:23:38;28.90;68.90
19292;DHT22;9779;51.756;7.450;2022-07-18T10:26:17;29.10;66.90
19292;DHT22;9779;51.756;7.450;2022-07-18T10:31:35;29.20;64.70
19292;DHT22;9779;51.756;7.450;2022-07-18T10:36:34;29.40;63.90
19292;DHT22;9779;51.756;7.450;2022-07-18T10:41:28;29.60;59.90
19292;DHT22;9779;51.756;7.450;2022-07-18T10:43:54;29.60;60.50
19292;DHT22;9779;51.756;7.450;2022-07-18T10:46:19;29.80;62.10
19292;DHT22;9779;51.756;7.450;2022-07-18T10:51:16;30.00;57.20
19292;DHT22;9779;51.756;7.450;2022-07-18T10:56:20;30.40;56.80
19292;DHT22;9779;51.756;7.450;2022-07-18T10:58:46;30.70;58.90
19292;DHT22;9779;51.756;7.450;2022-07-18T11:01:17;30.90;53.90
19292;DHT22;9779;51.756;7.450;2022-07-18T11:03:43;31.10;53.00
19292;DHT22;9779;51.756;7.450;2022-07-18T11:06:09;31.10;52.40
19292;DHT22;9779;51.756;7.450;2022-07-18T11:08:35;31.00;52.50
19292;DHT22;9779;51.756;7.450;2022-07-18T11:11:05;31.10;52.70
19292;DHT22;9779;51.756;7.450;2022-07-18T11:13:43;31.10;54.00
19292;DHT22;9779;51.756;7.450;2022-07-18T11:16:23;31.30;52.60
19292;DHT22;9779;51.756;7.450;2022-07-18T11:21:22;31.90;51.10
19292;DHT22;9779;51.756;7.450;2022-07-18T11:24:09;32.10;50.70
19292;DHT22;9779;51.756;7.450;2022-07-18T11:26:44;32.50;49.10
19292;DHT22;9779;51.756;7.450;2022-07-18T11:29:11;32.50;46.70
19292;DHT22;9779;51.756;7.450;2022-07-18T11:31:57;32.90;48.70
19292;DHT22;9779;51.756;7.450;2022-07-18T11:34:25;33.50;47.70
19292;DHT22;9779;51.756;7.450;2022-07-18T11:36:50;33.70;46.90
19292;DHT22;9779;51.756;7.450;2022-07-18T11:39:31;33.90;42.00
19292;DHT22;9779;51.756;7.450;2022-07-18T11:41:58;33.20;43.00
19292;DHT22;9779;51.756;7.450;2022-07-18T11:44:24;33.20;44.30
19292;DHT22;9779;51.756;7.450;2022-07-18T11:47:07;33.60;44.80
19292;DHT22;9779;51.756;7.450;2022-07-18T11:49:37;33.70;41.30
19292;DHT22;9779;51.756;7.450;2022-07-18T11:52:04;33.80;41.80
19292;DHT22;9779;51.756;7.450;2022-07-18T11:54:30;34.60;77.30
19292;DHT22;9779;51.756;7.450;2022-07-18T11:56:57;34.30;71.10
19292;DHT22;9779;51.756;7.450;2022-07-18T11:59:34;34.90;50.70
19292;DHT22;9779;51.756;7.450;2022-07-18T12:02:00;35.10;40.60
19292;DHT22;9779;51.756;7.450;2022-07-18T12:04:27;35.00;37.70
19292;DHT22;9779;51.756;7.450;2022-07-18T12:07:31;35.10;39.30
19292;DHT22;9779;51.756;7.450;2022-07-18T12:09:57;35.00;39.50
19292;DHT22;9779;51.756;7.450;2022-07-18T12:12:41;34.80;37.60
19292;DHT22;9779;51.756;7.450;2022-07-18T12:15:07;35.20;37.00
19292;DHT22;9779;51.756;7.450;2022-07-18T12:17:43;35.80;37.50
19292;DHT22;9779;51.756;7.450;2022-07-18T12:20:18;36.00;36.80
19292;DHT22;9779;51.756;7.450;2022-07-18T12:23:03;36.50;36.40
19292;DHT22;9779;51.756;7.450;2022-07-18T12:25:40;36.80;35.70
19292;DHT22;9779;51.756;7.450;2022-07-18T12:28:17;36.90;34.80
19292;DHT22;9779;51.756;7.450;2022-07-18T12:30:44;36.70;33.90
19292;DHT22;9779;51.756;7.450;2022-07-18T12:33:10;36.80;35.00
19292;DHT22;9779;51.756;7.450;2022-07-18T12:35:37;37.00;35.60
19292;DHT22;9779;51.756;7.450;2022-07-18T12:40:57;37.20;33.30
19292;DHT22;9779;51.756;7.450;2022-07-18T12:43:37;37.30;33.20
19292;DHT22;9779;51.756;7.450;2022-07-18T12:46:08;37.30;32.60
19292;DHT22;9779;51.756;7.450;2022-07-18T12:48:35;37.00;33.10
19292;DHT22;9779;51.756;7.450;2022-07-18T12:51:05;36.60;32.10
19292;DHT22;9779;51.756;7.450;2022-07-18T12:53:34;36.00;31.60
19292;DHT22;9779;51.756;7.450;2022-07-18T12:56:00;35.70;34.10
19292;DHT22;9779;51.756;7.450;2022-07-18T12:58:26;35.60;35.00
19292;DHT22;9779;51.756;7.450;2022-07-18T13:00:52;35.40;33.30
19292;DHT22;9779;51.756;7.450;2022-07-18T13:03:20;35.20;34.40
19292;DHT22;9779;51.756;7.450;2022-07-18T13:05:46;35.40;35.30
19292;DHT22;9779;51.756;7.450;2022-07-18T13:08:11;35.80;35.30
19292;DHT22;9779;51.756;7.450;2022-07-18T13:10:38;36.20;34.10
19292;DHT22;9779;51.756;7.450;2022-07-18T13:13:05;36.90;35.20
19292;DHT22;9779;51.756;7.450;2022-07-18T13:15:32;37.20;32.90
19292;DHT22;9779;51.756;7.450;2022-07-18T13:17:58;37.40;32.30
19292;DHT22;9779;51.756;7.450;2022-07-18T13:20:23;38.10;32.60
19292;DHT22;9779;51.756;7.450;2022-07-18T13:22:49;38.40;31.50
19292;DHT22;9779;51.756;7.450;2022-07-18T13:25:14;38.00;32.30
19292;DHT22;9779;51.756;7.450;2022-07-18T13:27:40;37.50;33.80
19292;DHT22;9779;51.756;7.450;2022-07-18T13:30:07;36.60;31.00
19292;DHT22;9779;51.756;7.450;2022-07-18T13:32:35;36.10;31.90
19292;DHT22;9779;51.756;7.450;2022-07-18T13:35:01;35.70;32.20
19292;DHT22;9779;51.756;7.450;2022-07-18T13:37:27;35.50;33.10
19292;DHT22;9779;51.756;7.450;2022-07-18T13:39:53;35.40;33.80
19292;DHT22;9779;51.756;7.450;2022-07-18T13:42:18;35.60;34.50
19292;DHT22;9779;51.756;7.450;2022-07-18T13:44:44;35.70;33.80
19292;DHT22;9779;51.756;7.450;2022-07-18T13:47:11;35.90;35.40
19292;DHT22;9779;51.756;7.450;2022-07-18T13:49:37;35.90;32.20
19292;DHT22;9779;51.756;7.450;2022-07-18T13:52:03;35.70;33.00
19292;DHT22;9779;51.756;7.450;2022-07-18T13:54:28;35.70;32.50
19292;DHT22;9779;51.756;7.450;2022-07-18T13:56:54;35.70;34.50
19292;DHT22;9779;51.756;7.450;2022-07-18T13:59:19;35.90;35.10
19292;DHT22;9779;51.756;7.450;2022-07-18T14:01:45;36.00;34.10
19292;DHT22;9779;51.756;7.450;2022-07-18T14:04:10;36.10;32.90
19292;DHT22;9779;51.756;7.450;2022-07-18T14:06:36;36.20;34.00
19292;DHT22;9779;51.756;7.450;2022-07-18T14:09:04;36.10;33.50
19292;DHT22;9779;51.756;7.450;2022-07-18T14:11:30;35.70;33.30
19292;DHT22;9779;51.756;7.450;2022-07-18T14:13:58;35.40;35.40
19292;DHT22;9779;51.756;7.450;2022-07-18T14:16:23;35.10;34.10
19292;DHT22;9779;51.756;7.450;2022-07-18T14:18:49;35.00;35.90
19292;DHT22;9779;51.756;7.450;2022-07-18T14:21:15;35.20;36.30
19292;DHT22;9779;51.756;7.450;2022-07-18T14:23:41;35.80;36.40
19292;DHT22;9779;51.756;7.450;2022-07-18T14:26:06;36.00;33.50
19292;DHT22;9779;51.756;7.450;2022-07-18T14:28:32;36.60;34.60
19292;DHT22;9779;51.756;7.450;2022-07-18T14:30:57;36.90;35.40
19292;DHT22;9779;51.756;7.450;2022-07-18T14:33:23;37.30;34.40
19292;DHT22;9779;51.756;7.450;2022-07-18T14:35:49;37.60;34.00
19292;DHT22;9779;51.756;7.450;2022-07-18T14:38:14;37.70;33.40
19292;DHT22;9779;51.756;7.450;2022-07-18T14:40:40;37.90;32.50
19292;DHT22;9779;51.756;7.450;2022-07-18T14:43:07;38.00;32.30
19292;DHT22;9779;51.756;7.450;2022-07-18T14:45:32;38.10;31.80
19292;DHT22;9779;51.756;7.450;2022-07-18T14:47:58;38.10;33.30
19292;DHT22;9779;51.756;7.450;2022-07-18T14:50:23;38.00;33.20
19292;DHT22;9779;51.756;7.450;2022-07-18T14:52:49;38.00;32.30
19292;DHT22;9779;51.756;7.450;2022-07-18T14:55:15;38.00;32.00
19292;DHT22;9779;51.756;7.450;2022-07-18T14:57:40;38.10;32.50
19292;DHT22;9779;51.756;7.450;2022-07-18T15:00:07;38.20;32.90
19292;DHT22;9779;51.756;7.450;2022-07-18T15:02:34;38.00;31.90
19292;DHT22;9779;51.756;7.450;2022-07-18T15:05:00;38.20;32.00
19292;DHT22;9779;51.756;7.450;2022-07-18T15:07:26;38.10;31.80
19292;DHT22;9779;51.756;7.450;2022-07-18T15:09:51;38.20;31.90
19292;DHT22;9779;51.756;7.450;2022-07-18T15:12:17;38.30;29.40
19292;DHT22;9779;51.756;7.450;2022-07-18T15:14:43;38.20;30.70
19292;DHT22;9779;51.756;7.450;2022-07-18T15:17:08;38.40;30.70
19292;DHT22;9779;51.756;7.450;2022-07-18T15:19:35;38.90;31.70
19292;DHT22;9779;51.756;7.450;2022-07-18T15:22:01;39.40;31.10
19292;DHT22;9779;51.756;7.450;2022-07-18T15:24:26;39.70;29.40
19292;DHT22;9779;51.756;7.450;2022-07-18T15:26:52;39.60;29.70
19292;DHT22;9779;51.756;7.450;2022-07-18T15:29:18;39.50;29.70
19292;DHT22;9779;51.756;7.450;2022-07-18T15:31:43;39.40;30.60
19292;DHT22;9779;51.756;7.450;2022-07-18T15:34:09;39.40;29.80
19292;DHT22;9779;51.756;7.450;2022-07-18T15:36:35;39.40;30.10
19292;DHT22;9779;51.756;7.450;2022-07-18T15:39:00;39.30;29.80
19292;DHT22;9779;51.756;7.450;2022-07-18T15:41:26;39.30;29.70
19292;DHT22;9779;51.756;7.450;2022-07-18T15:43:51;39.40;29.60
19292;DHT22;9779;51.756;7.450;2022-07-18T15:46:18;39.40;30.60
19292;DHT22;9779;51.756;7.450;2022-07-18T15:48:44;39.50;28.90
19292;DHT22;9779;51.756;7.450;2022-07-18T15:51:10;39.60;29.90
19292;DHT22;9779;51.756;7.450;2022-07-18T15:53:36;39.50;29.10
19292;DHT22;9779;51.756;7.450;2022-07-18T15:56:03;39.60;29.30
19292;DHT22;9779;51.756;7.450;2022-07-18T15:58:28;39.50;28.70
19292;DHT22;9779;51.756;7.450;2022-07-18T16:00:55;39.70;28.60
19292;DHT22;9779;51.756;7.450;2022-07-18T16:03:21;39.90;29.10
19292;DHT22;9779;51.756;7.450;2022-07-18T16:05:47;40.20;29.60
19292;DHT22;9779;51.756;7.450;2022-07-18T16:08:12;40.00;29.00
19292;DHT22;9779;51.756;7.450;2022-07-18T16:10:38;40.30;28.80
19292;DHT22;9779;51.756;7.450;2022-07-18T16:13:03;40.40;29.40
19292;DHT22;9779;51.756;7.450;2022-07-18T16:15:29;40.50;29.10
19292;DHT22;9779;51.756;7.450;2022-07-18T16:17:55;40.30;28.70
19292;DHT22;9779;51.756;7.450;2022-07-18T16:20:21;39.80;26.60
19292;DHT22;9779;51.756;7.450;2022-07-18T16:22:46;39.70;27.40
19292;DHT22;9779;51.756;7.450;2022-07-18T16:25:12;39.70;27.50
19292;DHT22;9779;51.756;7.450;2022-07-18T16:27:38;39.60;28.00
19292;DHT22;9779;51.756;7.450;2022-07-18T16:30:04;39.60;27.30
19292;DHT22;9779;51.756;7.450;2022-07-18T16:32:30;39.40;26.90
19292;DHT22;9779;51.756;7.450;2022-07-18T16:34:56;39.60;27.90
19292;DHT22;9779;51.756;7.450;2022-07-18T16:37:22;39.60;28.40
19292;DHT22;9779;51.756;7.450;2022-07-18T16:39:47;39.70;27.90
19292;DHT22;9779;51.756;7.450;2022-07-18T16:42:13;39.70;27.80
19292;DHT22;9779;51.756;7.450;2022-07-18T16:44:39;39.60;27.60
19292;DHT22;9779;51.756;7.450;2022-07-18T16:47:06;39.60;27.80
19292;DHT22;9779;51.756;7.450;2022-07-18T16:49:32;39.50;28.20
19292;DHT22;9779;51.756;7.450;2022-07-18T16:51:58;39.50;28.40
19292;DHT22;9779;51.756;7.450;2022-07-18T16:54:24;39.40;26.80
19292;DHT22;9779;51.756;7.450;2022-07-18T16:56:50;39.40;27.40
19292;DHT22;9779;51.756;7.450;2022-07-18T16:59:15;39.30;28.00
19292;DHT22;9779;51.756;7.450;2022-07-18T17:01:41;39.20;27.50
19292;DHT22;9779;51.756;7.450;2022-07-18T17:04:08;39.10;26.90
19292;DHT22;9779;51.756;7.450;2022-07-18T17:06:34;38.90;26.90
19292;DHT22;9779;51.756;7.450;2022-07-18T17:09:00;38.90;26.90
19292;DHT22;9779;51.756;7.450;2022-07-18T17:11:26;38.80;27.60
19292;DHT22;9779;51.756;7.450;2022-07-18T17:13:52;38.80;27.30
19292;DHT22;9779;51.756;7.450;2022-07-18T17:16:17;38.80;27.80
19292;DHT22;9779;51.756;7.450;2022-07-18T17:18:43;38.80;27.20
19292;DHT22;9779;51.756;7.450;2022-07-18T17:21:09;38.70;27.30
19292;DHT22;9779;51.756;7.450;2022-07-18T17:23:36;38.70;28.20
19292;DHT22;9779;51.756;7.450;2022-07-18T17:26:02;38.70;28.40
19292;DHT22;9779;51.756;7.450;2022-07-18T17:28:28;38.60;27.60